ATC200 HTDA-HKJK
Flight info
| Callsign | ATC200 |
|---|---|
| Flight time | 0h 59m |
| Altitude | 20000 |
| Route | GEREN1D GEREN UL445 GABSO GABSO3A |
| Aircraft | B38M/M-SDE2E3FGHIRWXY/LB1 |
Departure
| Time | 2026-04-16 14:39 |
|---|---|
| Airport | Julius Nyerere International Airport (HTDA) |
Arrival
| Time | 2026-04-16 15:38 |
|---|---|
| Airport | Jomo Kenyatta International Airport (HKJK) |
| Time | Latitude | Longitude | Altitude | Speed | Heading |
|---|---|---|---|---|---|
| 2026-04-16 14:18 | -6.86522 | 39.21095 | 185 ft | 0 kts | 315° |
| 2026-04-16 14:31 | -6.86525 | 39.21098 | 185 ft | 2 kts | 315° |
| 2026-04-16 14:32 | -6.86536 | 39.21109 | 184 ft | 2 kts | 315° |
| 2026-04-16 14:32 | -6.86547 | 39.21120 | 184 ft | 2 kts | 315° |
| 2026-04-16 14:32 | -6.86557 | 39.21130 | 184 ft | 2 kts | 315° |
| 2026-04-16 14:32 | -6.86569 | 39.21139 | 184 ft | 2 kts | 341° |
| 2026-04-16 14:33 | -6.86584 | 39.21142 | 184 ft | 2 kts | 2° |
| 2026-04-16 14:33 | -6.86599 | 39.21139 | 184 ft | 2 kts | 25° |
| 2026-04-16 14:33 | -6.86608 | 39.21133 | 184 ft | 0 kts | 42° |
| 2026-04-16 14:33 | -6.86613 | 39.21128 | 184 ft | 0 kts | 45° |
| 2026-04-16 14:35 | -6.86606 | 39.21135 | 184 ft | 5 kts | 45° |
| 2026-04-16 14:35 | -6.86548 | 39.21193 | 183 ft | 16 kts | 45° |
| 2026-04-16 14:36 | -6.86519 | 39.21222 | 182 ft | 20 kts | 45° |
| 2026-04-16 14:36 | -6.86473 | 39.21268 | 181 ft | 17 kts | 45° |
| 2026-04-16 14:36 | -6.86393 | 39.21349 | 180 ft | 16 kts | 45° |
| 2026-04-16 14:36 | -6.86298 | 39.21444 | 179 ft | 16 kts | 45° |
| 2026-04-16 14:37 | -6.86221 | 39.21538 | 178 ft | 18 kts | 79° |
| 2026-04-16 14:37 | -6.86288 | 39.21605 | 175 ft | 13 kts | 154° |
| 2026-04-16 14:37 | -6.86354 | 39.21663 | 173 ft | 9 kts | 133° |
| 2026-04-16 14:37 | -6.86418 | 39.21660 | 173 ft | 11 kts | 225° |
| 2026-04-16 14:38 | -6.86548 | 39.21528 | 176 ft | 57 kts | 224° |
| 2026-04-16 14:38 | -6.87008 | 39.21066 | 182 ft | 129 kts | 224° |
| 2026-04-16 14:38 | -6.87783 | 39.20290 | 284 ft | 175 kts | 225° |
| 2026-04-16 14:38 | -6.88692 | 39.19358 | 772 ft | 193 kts | 226° |
| 2026-04-16 14:39 | -6.89603 | 39.18404 | 1528 ft | 196 kts | 227° |
| 2026-04-16 14:39 | -6.90252 | 39.17181 | 2055 ft | 212 kts | 261° |
| 2026-04-16 14:39 | -6.90018 | 39.15699 | 2761 ft | 219 kts | 300° |
| 2026-04-16 14:39 | -6.89029 | 39.14585 | 3595 ft | 220 kts | 323° |
| 2026-04-16 14:40 | -6.87646 | 39.13777 | 4025 ft | 244 kts | 335° |
| 2026-04-16 14:40 | -6.86096 | 39.13055 | 4661 ft | 247 kts | 335° |
| 2026-04-16 14:40 | -6.84527 | 39.12354 | 5341 ft | 250 kts | 336° |
| 2026-04-16 14:40 | -6.82890 | 39.11754 | 5999 ft | 256 kts | 351° |
| 2026-04-16 14:41 | -6.81088 | 39.11785 | 6721 ft | 269 kts | 4° |
| 2026-04-16 14:41 | -6.79173 | 39.11729 | 7338 ft | 283 kts | 347° |
| 2026-04-16 14:41 | -6.77280 | 39.11255 | 8287 ft | 286 kts | 342° |
| 2026-04-16 14:41 | -6.75375 | 39.10655 | 9187 ft | 289 kts | 337° |
| 2026-04-16 14:42 | -6.73519 | 39.09895 | 10113 ft | 292 kts | 336° |
| 2026-04-16 14:42 | -6.71603 | 39.09129 | 10816 ft | 302 kts | 337° |
| 2026-04-16 14:42 | -6.69651 | 39.08378 | 11655 ft | 306 kts | 338° |
| 2026-04-16 14:42 | -6.67671 | 39.07616 | 12469 ft | 310 kts | 338° |
| 2026-04-16 14:43 | -6.65644 | 39.06836 | 13263 ft | 314 kts | 338° |
| 2026-04-16 14:43 | -6.63606 | 39.06055 | 14041 ft | 318 kts | 337° |
| 2026-04-16 14:43 | -6.61548 | 39.05267 | 14800 ft | 322 kts | 337° |
| 2026-04-16 14:43 | -6.59450 | 39.04463 | 15541 ft | 325 kts | 337° |
| 2026-04-16 14:44 | -6.57330 | 39.03652 | 16259 ft | 329 kts | 337° |
| 2026-04-16 14:44 | -6.55190 | 39.02833 | 16951 ft | 333 kts | 337° |
| 2026-04-16 14:44 | -6.53019 | 39.02002 | 17627 ft | 337 kts | 337° |
| 2026-04-16 14:44 | -6.50830 | 39.01165 | 18285 ft | 340 kts | 337° |
| 2026-04-16 14:45 | -6.48614 | 39.00317 | 18924 ft | 344 kts | 336° |
| 2026-04-16 14:45 | -6.46398 | 38.99470 | 19536 ft | 347 kts | 336° |
| 2026-04-16 14:45 | -6.44144 | 38.98608 | 20139 ft | 351 kts | 336° |
| 2026-04-16 14:45 | -6.41865 | 38.97736 | 20725 ft | 354 kts | 336° |
| 2026-04-16 14:46 | -6.39540 | 38.96847 | 21296 ft | 357 kts | 336° |
| 2026-04-16 14:46 | -6.37234 | 38.95966 | 21844 ft | 361 kts | 336° |
| 2026-04-16 14:46 | -6.34880 | 38.95066 | 22380 ft | 364 kts | 336° |
| 2026-04-16 14:46 | -6.32479 | 38.94148 | 22911 ft | 367 kts | 336° |
| 2026-04-16 14:47 | -6.30047 | 38.93219 | 23427 ft | 370 kts | 336° |
| 2026-04-16 14:47 | -6.27642 | 38.92300 | 23911 ft | 374 kts | 336° |
| 2026-04-16 14:47 | -6.25206 | 38.91369 | 24404 ft | 376 kts | 336° |
| 2026-04-16 14:47 | -6.22756 | 38.90433 | 24863 ft | 379 kts | 336° |
| 2026-04-16 14:48 | -6.20315 | 38.89500 | 25311 ft | 382 kts | 336° |
| 2026-04-16 14:48 | -6.17832 | 38.88551 | 25756 ft | 385 kts | 336° |
| 2026-04-16 14:48 | -6.15305 | 38.87586 | 26199 ft | 387 kts | 336° |
| 2026-04-16 14:48 | -6.12815 | 38.86635 | 26619 ft | 390 kts | 335° |
| 2026-04-16 14:49 | -6.10257 | 38.85659 | 27045 ft | 392 kts | 335° |
| 2026-04-16 14:49 | -6.07706 | 38.84685 | 27456 ft | 394 kts | 335° |
| 2026-04-16 14:49 | -6.05168 | 38.83716 | 27845 ft | 397 kts | 335° |
| 2026-04-16 14:49 | -6.02581 | 38.82728 | 28240 ft | 399 kts | 335° |
| 2026-04-16 14:50 | -6.00009 | 38.81746 | 28614 ft | 401 kts | 335° |
| 2026-04-16 14:50 | -5.97403 | 38.80751 | 28974 ft | 403 kts | 335° |
| 2026-04-16 14:50 | -5.94777 | 38.79749 | 29323 ft | 405 kts | 335° |
| 2026-04-16 14:50 | -5.92154 | 38.78749 | 29714 ft | 406 kts | 335° |
| 2026-04-16 14:51 | -5.89494 | 38.77734 | 30070 ft | 407 kts | 335° |
| 2026-04-16 14:51 | -5.86855 | 38.76727 | 30396 ft | 409 kts | 335° |
| 2026-04-16 14:51 | -5.84207 | 38.75717 | 30721 ft | 411 kts | 335° |
| 2026-04-16 14:51 | -5.81529 | 38.74696 | 31026 ft | 413 kts | 335° |
| 2026-04-16 14:53 | -5.62563 | 38.67464 | 33034 ft | 424 kts | 335° |
| 2026-04-16 14:53 | -5.59816 | 38.66417 | 33279 ft | 425 kts | 335° |
| 2026-04-16 14:54 | -5.57072 | 38.65371 | 33543 ft | 427 kts | 335° |
| 2026-04-16 14:54 | -5.54274 | 38.64305 | 33766 ft | 429 kts | 335° |
| 2026-04-16 14:54 | -5.48729 | 38.62193 | 33857 ft | 429 kts | 335° |
| 2026-04-16 14:55 | -5.43177 | 38.60080 | 33858 ft | 425 kts | 335° |
| 2026-04-16 14:55 | -5.37683 | 38.57986 | 33858 ft | 425 kts | 335° |
| 2026-04-16 14:56 | -5.32184 | 38.55892 | 33858 ft | 426 kts | 335° |
| 2026-04-16 14:56 | -5.26657 | 38.53788 | 33858 ft | 426 kts | 335° |
| 2026-04-16 14:57 | -5.21159 | 38.51696 | 33858 ft | 426 kts | 335° |
| 2026-04-16 14:57 | -5.15617 | 38.49587 | 33858 ft | 426 kts | 335° |
| 2026-04-16 14:58 | -5.07332 | 38.46434 | 33857 ft | 430 kts | 335° |
| 2026-04-16 14:59 | -5.01713 | 38.44220 | 33852 ft | 440 kts | 334° |
| 2026-04-16 14:59 | -4.95993 | 38.41907 | 33853 ft | 450 kts | 334° |
| 2026-04-16 15:00 | -4.90116 | 38.39551 | 33840 ft | 457 kts | 334° |
| 2026-04-16 15:00 | -4.84197 | 38.37179 | 33820 ft | 456 kts | 334° |
| 2026-04-16 15:01 | -4.78310 | 38.34822 | 33804 ft | 455 kts | 334° |
| 2026-04-16 15:01 | -4.72452 | 38.32475 | 33804 ft | 456 kts | 334° |
| 2026-04-16 15:02 | -4.66610 | 38.30135 | 33803 ft | 456 kts | 334° |
| 2026-04-16 15:02 | -4.60740 | 38.27784 | 33804 ft | 456 kts | 334° |
| 2026-04-16 15:03 | -4.54871 | 38.25435 | 33804 ft | 456 kts | 334° |
| 2026-04-16 15:03 | -4.48998 | 38.23084 | 33804 ft | 456 kts | 334° |
| 2026-04-16 15:04 | -4.43134 | 38.20737 | 33830 ft | 455 kts | 334° |
| 2026-04-16 15:04 | -4.37270 | 38.18391 | 33877 ft | 456 kts | 334° |
| 2026-04-16 15:05 | -4.31390 | 38.16039 | 33933 ft | 456 kts | 334° |
| 2026-04-16 15:05 | -4.25527 | 38.13693 | 33939 ft | 456 kts | 334° |
| 2026-04-16 15:06 | -4.19658 | 38.11346 | 33939 ft | 456 kts | 334° |
| 2026-04-16 15:06 | -4.13787 | 38.08999 | 33939 ft | 456 kts | 334° |
| 2026-04-16 15:07 | -4.07944 | 38.06663 | 33939 ft | 456 kts | 334° |
| 2026-04-16 15:07 | -4.02072 | 38.04316 | 33939 ft | 456 kts | 334° |
| 2026-04-16 15:08 | -3.96206 | 38.01971 | 33939 ft | 456 kts | 334° |
| 2026-04-16 15:08 | -3.90328 | 37.99622 | 33939 ft | 456 kts | 334° |
| 2026-04-16 15:09 | -3.84472 | 37.97283 | 33939 ft | 456 kts | 334° |
| 2026-04-16 15:09 | -3.78486 | 37.95232 | 33939 ft | 459 kts | 342° |
| 2026-04-16 15:10 | -3.72302 | 37.93691 | 33939 ft | 459 kts | 342° |
| 2026-04-16 15:10 | -3.66132 | 37.92063 | 33939 ft | 459 kts | 341° |
| 2026-04-16 15:11 | -3.59998 | 37.90400 | 33938 ft | 458 kts | 338° |
| 2026-04-16 15:11 | -3.54179 | 37.87984 | 33939 ft | 454 kts | 332° |
| 2026-04-16 15:12 | -3.48441 | 37.85395 | 33939 ft | 454 kts | 332° |
| 2026-04-16 15:12 | -3.42692 | 37.82823 | 33939 ft | 454 kts | 332° |
| 2026-04-16 15:13 | -3.36943 | 37.80224 | 33939 ft | 454 kts | 332° |
| 2026-04-16 15:13 | -3.31223 | 37.77632 | 33939 ft | 454 kts | 332° |
| 2026-04-16 15:14 | -3.25476 | 37.75025 | 33939 ft | 454 kts | 332° |
| 2026-04-16 15:14 | -3.19751 | 37.72425 | 33939 ft | 454 kts | 332° |
| 2026-04-16 15:15 | -3.14034 | 37.69829 | 33939 ft | 454 kts | 332° |
| 2026-04-16 15:15 | -3.08293 | 37.67220 | 33939 ft | 454 kts | 332° |
| 2026-04-16 15:16 | -3.02537 | 37.64605 | 33939 ft | 454 kts | 332° |
| 2026-04-16 15:16 | -2.96813 | 37.62004 | 33939 ft | 454 kts | 332° |
| 2026-04-16 15:17 | -2.91112 | 37.59415 | 33939 ft | 453 kts | 332° |
| 2026-04-16 15:17 | -2.88256 | 37.58112 | 34007 ft | 442 kts | 331° |
| 2026-04-16 15:17 | -2.85615 | 37.56734 | 34018 ft | 424 kts | 326° |
| 2026-04-16 15:17 | -2.83200 | 37.55120 | 34021 ft | 406 kts | 321° |
| 2026-04-16 15:18 | -2.80941 | 37.53476 | 34023 ft | 403 kts | 321° |
| 2026-04-16 15:18 | -2.76345 | 37.50205 | 34021 ft | 413 kts | 321° |
| 2026-04-16 15:19 | -2.71689 | 37.46864 | 34019 ft | 413 kts | 321° |
| 2026-04-16 15:19 | -2.67047 | 37.43512 | 34020 ft | 411 kts | 321° |
| 2026-04-16 15:20 | -2.62445 | 37.40180 | 34020 ft | 411 kts | 321° |
| 2026-04-16 15:20 | -2.57815 | 37.36823 | 34020 ft | 411 kts | 321° |
| 2026-04-16 15:21 | -2.53201 | 37.33476 | 33892 ft | 408 kts | 321° |
| 2026-04-16 15:21 | -2.50919 | 37.31821 | 33333 ft | 405 kts | 321° |
| 2026-04-16 15:21 | -2.48686 | 37.30202 | 32892 ft | 399 kts | 321° |
| 2026-04-16 15:21 | -2.46440 | 37.28572 | 32396 ft | 394 kts | 321° |
| 2026-04-16 15:22 | -2.44271 | 37.26999 | 31912 ft | 390 kts | 321° |
| 2026-04-16 15:22 | -2.42070 | 37.25400 | 31423 ft | 393 kts | 321° |
| 2026-04-16 15:22 | -2.39869 | 37.23801 | 30919 ft | 393 kts | 321° |
| 2026-04-16 15:22 | -2.37676 | 37.22210 | 30423 ft | 389 kts | 321° |
| 2026-04-16 15:23 | -2.35492 | 37.20626 | 29928 ft | 384 kts | 321° |
| 2026-04-16 15:23 | -2.33352 | 37.19073 | 29443 ft | 380 kts | 321° |
| 2026-04-16 15:23 | -2.31228 | 37.17532 | 28932 ft | 377 kts | 321° |
| 2026-04-16 15:23 | -2.29114 | 37.15997 | 28194 ft | 381 kts | 321° |
| 2026-04-16 15:24 | -2.26965 | 37.14437 | 27558 ft | 380 kts | 321° |
| 2026-04-16 15:24 | -2.24836 | 37.12893 | 26953 ft | 380 kts | 321° |
| 2026-04-16 15:24 | -2.22706 | 37.11347 | 26349 ft | 379 kts | 321° |
| 2026-04-16 15:24 | -2.20589 | 37.09811 | 25758 ft | 378 kts | 321° |
| 2026-04-16 15:25 | -2.18484 | 37.08284 | 25172 ft | 378 kts | 321° |
| 2026-04-16 15:25 | -2.16378 | 37.06756 | 24589 ft | 377 kts | 321° |
| 2026-04-16 15:25 | -2.14262 | 37.05220 | 24138 ft | 372 kts | 321° |
| 2026-04-16 15:25 | -2.12207 | 37.03731 | 23640 ft | 370 kts | 321° |
| 2026-04-16 15:26 | -2.10113 | 37.02210 | 22936 ft | 373 kts | 322° |
| 2026-04-16 15:26 | -2.08011 | 37.00685 | 22393 ft | 372 kts | 322° |
| 2026-04-16 15:26 | -2.05943 | 36.99182 | 21878 ft | 369 kts | 326° |
| 2026-04-16 15:26 | -2.03900 | 36.97691 | 21728 ft | 353 kts | 325° |
| 2026-04-16 15:27 | -2.01961 | 36.96281 | 21378 ft | 345 kts | 326° |
| 2026-04-16 15:27 | -2.00043 | 36.94896 | 20948 ft | 340 kts | 326° |
| 2026-04-16 15:27 | -1.98150 | 36.93527 | 20462 ft | 337 kts | 326° |
| 2026-04-16 15:27 | -1.96255 | 36.92153 | 19950 ft | 335 kts | 326° |
| 2026-04-16 15:28 | -1.94380 | 36.90795 | 19431 ft | 333 kts | 326° |
| 2026-04-16 15:28 | -1.92516 | 36.89444 | 18917 ft | 331 kts | 326° |
| 2026-04-16 15:28 | -1.90673 | 36.88108 | 18405 ft | 330 kts | 326° |
| 2026-04-16 15:28 | -1.88811 | 36.86759 | 17895 ft | 328 kts | 326° |
| 2026-04-16 15:29 | -1.86968 | 36.85422 | 17390 ft | 327 kts | 326° |
| 2026-04-16 15:29 | -1.85149 | 36.84103 | 16895 ft | 325 kts | 326° |
| 2026-04-16 15:29 | -1.83323 | 36.82780 | 16402 ft | 324 kts | 326° |
| 2026-04-16 15:29 | -1.81523 | 36.81475 | 15917 ft | 322 kts | 326° |
| 2026-04-16 15:30 | -1.79711 | 36.80162 | 15425 ft | 321 kts | 326° |
| 2026-04-16 15:30 | -1.77826 | 36.79033 | 14932 ft | 318 kts | 338° |
| 2026-04-16 15:30 | -1.75729 | 36.78374 | 14445 ft | 314 kts | 352° |
| 2026-04-16 15:30 | -1.73581 | 36.78198 | 13983 ft | 311 kts | 359° |
| 2026-04-16 15:31 | -1.71446 | 36.78119 | 13509 ft | 310 kts | 359° |
| 2026-04-16 15:31 | -1.69283 | 36.78005 | 13029 ft | 308 kts | 358° |
| 2026-04-16 15:31 | -1.67166 | 36.77900 | 12565 ft | 307 kts | 359° |
| 2026-04-16 15:31 | -1.65060 | 36.77803 | 12107 ft | 305 kts | 359° |
| 2026-04-16 15:32 | -1.62952 | 36.77707 | 11669 ft | 303 kts | 358° |
| 2026-04-16 15:32 | -1.60852 | 36.77610 | 11245 ft | 300 kts | 358° |
| 2026-04-16 15:32 | -1.58782 | 36.77517 | 10834 ft | 297 kts | 358° |
| 2026-04-16 15:32 | -1.56757 | 36.77425 | 10524 ft | 291 kts | 358° |
| 2026-04-16 15:33 | -1.54723 | 36.77334 | 10068 ft | 290 kts | 358° |
| 2026-04-16 15:33 | -1.52742 | 36.77245 | 9880 ft | 280 kts | 358° |
| 2026-04-16 15:33 | -1.50797 | 36.77157 | 9527 ft | 277 kts | 358° |
| 2026-04-16 15:33 | -1.48906 | 36.77072 | 9160 ft | 275 kts | 358° |
| 2026-04-16 15:34 | -1.46996 | 36.76987 | 8725 ft | 273 kts | 357° |
| 2026-04-16 15:34 | -1.45143 | 36.76938 | 8271 ft | 265 kts | 4° |
| 2026-04-16 15:34 | -1.43416 | 36.77483 | 7827 ft | 257 kts | 34° |
| 2026-04-16 15:34 | -1.42229 | 36.78723 | 7402 ft | 245 kts | 53° |
| 2026-04-16 15:35 | -1.41315 | 36.79984 | 7101 ft | 229 kts | 51° |
| 2026-04-16 15:35 | -1.40426 | 36.81165 | 7114 ft | 199 kts | 52° |
| 2026-04-16 15:35 | -1.39628 | 36.82249 | 7131 ft | 190 kts | 52° |
| 2026-04-16 15:35 | -1.38854 | 36.83305 | 7127 ft | 183 kts | 52° |
| 2026-04-16 15:36 | -1.38103 | 36.84331 | 7106 ft | 183 kts | 52° |
| 2026-04-16 15:36 | -1.37360 | 36.85348 | 6894 ft | 173 kts | 52° |
| 2026-04-16 15:36 | -1.36677 | 36.86281 | 6647 ft | 162 kts | 52° |
| 2026-04-16 15:36 | -1.36022 | 36.87177 | 6439 ft | 160 kts | 52° |
| 2026-04-16 15:37 | -1.35370 | 36.88068 | 6222 ft | 157 kts | 52° |
| 2026-04-16 15:37 | -1.34727 | 36.88947 | 6015 ft | 156 kts | 52° |
| 2026-04-16 15:37 | -1.34093 | 36.89814 | 5809 ft | 155 kts | 52° |
| 2026-04-16 15:37 | -1.33455 | 36.90686 | 5597 ft | 155 kts | 52° |
| 2026-04-16 15:38 | -1.32823 | 36.91557 | 5388 ft | 154 kts | 53° |
| 2026-04-16 15:38 | -1.32259 | 36.92326 | 5318 ft | 112 kts | 52° |
| 2026-04-16 15:38 | -1.31923 | 36.92777 | 5317 ft | 52 kts | 54° |
| 2026-04-16 15:38 | -1.31766 | 36.92992 | 5313 ft | 33 kts | 52° |
| 2026-04-16 15:39 | -1.31622 | 36.93191 | 5311 ft | 28 kts | 54° |
| 2026-04-16 15:39 | -1.31596 | 36.93348 | 5307 ft | 25 kts | 139° |
| 2026-04-16 15:39 | -1.31708 | 36.93429 | 5304 ft | 22 kts | 144° |
| 2026-04-16 15:39 | -1.31801 | 36.93481 | 5302 ft | 15 kts | 187° |
| 2026-04-16 15:40 | -1.31886 | 36.93393 | 5306 ft | 16 kts | 234° |
| 2026-04-16 15:40 | -1.31973 | 36.93275 | 5309 ft | 23 kts | 233° |
| 2026-04-16 15:40 | -1.32071 | 36.93142 | 5312 ft | 17 kts | 233° |
| 2026-04-16 15:40 | -1.32167 | 36.93013 | 5314 ft | 28 kts | 234° |
| 2026-04-16 15:41 | -1.32275 | 36.92864 | 5317 ft | 24 kts | 233° |
| 2026-04-16 15:41 | -1.32359 | 36.92748 | 5318 ft | 25 kts | 235° |
| 2026-04-16 15:41 | -1.32442 | 36.92633 | 5318 ft | 18 kts | 234° |
| 2026-04-16 15:41 | -1.32531 | 36.92512 | 5318 ft | 26 kts | 233° |
| 2026-04-16 15:42 | -1.32621 | 36.92385 | 5318 ft | 16 kts | 234° |
| 2026-04-16 15:42 | -1.32703 | 36.92361 | 5317 ft | 15 kts | 151° |
| 2026-04-16 15:42 | -1.32806 | 36.92359 | 5317 ft | 13 kts | 236° |
| 2026-04-16 15:42 | -1.32869 | 36.92345 | 5317 ft | 13 kts | 140° |
| 2026-04-16 15:43 | -1.32896 | 36.92368 | 5316 ft | 2 kts | 139° |
| 2026-04-16 15:43 | -1.32903 | 36.92374 | 5316 ft | 0 kts | 139° |
| 2026-04-16 15:43 | -1.32904 | 36.92375 | 5316 ft | 0 kts | 139° |